Time;durP1;ratioP1;P1;durP2;ratioP2;P2;SDS_P1;SDS_P2;PMS_P1;PMS_P2;Temp;Humidity;BMP_temperature;BMP_pressure;BME280_temperature;BME280_humidity;BME280_pressure;Samples;Min_cycle;Max_cycle;Signal;HPM_P1;HPM_P2
2021/09/28 00:02:22;;;;;;;1.60;0.68;;;;;;;16.28;65.59;97917.78;5011833;28;20034;-78
2021/09/28 00:04:48;;;;;;;0.90;0.40;;;;;;;16.29;65.85;97919.34;4994153;28;20032;-78
2021/09/28 00:07:16;;;;;;;2.85;1.23;;;;;;;16.24;65.36;97934.31;5010372;28;20041;-79
2021/09/28 00:09:42;;;;;;;2.10;0.68;;;;;;;16.21;65.62;97943.53;5011890;28;20069;-79
2021/09/28 00:12:08;;;;;;;0.80;0.65;;;;;;;16.09;65.98;97930.66;4994181;28;20061;-79
2021/09/28 00:14:34;;;;;;;3.28;0.68;;;;;;;16.17;65.75;97931.19;5010539;28;20119;-79
2021/09/28 00:16:59;;;;;;;1.88;0.68;;;;;;;16.19;66.05;97934.31;5010261;28;20520;-79
2021/09/28 00:19:24;;;;;;;2.72;0.40;;;;;;;16.16;65.80;97938.28;4992741;28;20013;-79
2021/09/28 00:21:50;;;;;;;2.05;0.57;;;;;;;16.15;65.84;97939.31;5013660;28;20033;-79
2021/09/28 00:24:16;;;;;;;3.08;0.75;;;;;;;16.10;66.10;97947.19;5030441;28;20069;-79
2021/09/28 00:26:41;;;;;;;2.45;0.45;;;;;;;16.06;65.64;97943.53;5022658;28;20076;-79
2021/09/28 00:29:07;;;;;;;1.02;0.40;;;;;;;16.03;65.56;97944.03;5010377;28;20509;-79
2021/09/28 00:31:32;;;;;;;2.80;0.82;;;;;;;16.02;65.52;97939.81;5010004;28;20036;-79
2021/09/28 00:33:57;;;;;;;1.83;0.50;;;;;;;15.95;65.53;97947.16;5009957;28;20065;-79
2021/09/28 00:36:23;;;;;;;0.70;0.60;;;;;;;15.86;65.13;97944.25;4993360;28;20025;-79
2021/09/28 00:38:50;;;;;;;2.88;0.45;;;;;;;15.76;65.59;97942.38;5009907;28;20100;-79
2021/09/28 00:41:16;;;;;;;2.22;1.02;;;;;;;15.69;65.80;97939.97;5010310;28;20140;-79
2021/09/28 00:43:49;;;;;;;3.22;0.70;;;;;;;15.55;66.00;97944.91;4993743;28;20485;-79
2021/09/28 00:46:15;;;;;;;2.45;0.63;;;;;;;15.69;66.23;97949.69;5010084;28;20385;-79
2021/09/28 00:48:41;;;;;;;1.70;0.60;;;;;;;15.63;65.96;97940.25;4977196;28;20041;-79
2021/09/28 00:51:07;;;;;;;1.13;0.82;;;;;;;15.63;66.23;97946.28;4993355;28;20046;-79
2021/09/28 00:53:33;;;;;;;2.60;1.00;;;;;;;15.64;66.14;97949.69;4993724;28;20050;-79
2021/09/28 00:55:59;;;;;;;2.95;0.50;;;;;;;15.67;66.40;97943.91;5009550;28;20032;-79
2021/09/28 00:58:24;;;;;;;2.60;0.60;;;;;;;15.66;66.14;97952.81;4992740;28;20529;-79
2021/09/28 01:00:50;;;;;;;2.60;0.80;;;;;;;15.58;66.22;97948.09;5011197;28;20045;-79
2021/09/28 01:03:17;;;;;;;3.30;0.88;;;;;;;15.50;65.71;97950.16;4976944;28;20061;-79
2021/09/28 01:05:43;;;;;;;2.30;1.15;;;;;;;15.59;66.33;97952.28;5008982;28;20037;-79
2021/09/28 01:08:08;;;;;;;1.80;0.88;;;;;;;15.57;66.55;97955.16;4976644;28;20040;-79
2021/09/28 01:10:35;;;;;;;1.35;0.90;;;;;;;15.55;66.77;97957.25;5009607;28;20053;-79
2021/09/28 01:13:03;;;;;;;6.70;1.67;;;;;;;15.52;66.76;97960.41;4976694;28;20120;-79
2021/09/28 01:15:28;;;;;;;3.67;2.00;;;;;;;15.62;67.29;97954.41;4977095;28;20065;-79
2021/09/28 01:17:54;;;;;;;5.00;1.83;;;;;;;15.71;66.93;97960.72;5009222;28;20088;-79
2021/09/28 01:20:19;;;;;;;2.78;1.90;;;;;;;15.70;66.94;97969.66;4992940;28;20473;-80
2021/09/28 01:22:45;;;;;;;3.97;3.10;;;;;;;15.74;67.03;97960.22;5009646;28;20033;-80
2021/09/28 01:25:11;;;;;;;3.63;2.75;;;;;;;15.79;66.98;97954.22;4976918;28;20026;-79
2021/09/28 01:27:38;;;;;;;7.60;3.35;;;;;;;15.77;66.71;97958.94;4992442;28;20060;-79
2021/09/28 01:30:09;;;;;;;3.50;2.80;;;;;;;15.74;67.08;97960.22;4992845;28;20041;-79
2021/09/28 01:32:34;;;;;;;5.63;3.47;;;;;;;15.89;66.76;97967.38;4992914;28;20105;-79
2021/09/28 01:35:01;;;;;;;5.82;3.60;;;;;;;15.88;67.02;97963.16;5010527;28;20120;-80
2021/09/28 01:37:26;;;;;;;4.65;3.10;;;;;;;15.98;67.15;97963.19;4992894;28;20033;-79
2021/09/28 01:39:52;;;;;;;6.22;3.15;;;;;;;15.93;66.87;97959.78;4992911;28;20083;-79
2021/09/28 01:42:17;;;;;;;4.60;3.55;;;;;;;15.90;66.60;97964.50;5010533;28;20113;-79
2021/09/28 01:44:43;;;;;;;4.82;3.40;;;;;;;15.89;66.44;97967.38;4976800;28;20033;-79
2021/09/28 01:47:08;;;;;;;6.05;3.90;;;;;;;15.88;66.74;97968.41;4992506;28;20030;-80
2021/09/28 01:49:34;;;;;;;4.90;3.05;;;;;;;15.89;67.01;97978.66;4976737;28;20077;-79
2021/09/28 01:52:00;;;;;;;6.88;3.58;;;;;;;15.85;66.51;97977.63;5009026;28;20516;-80
2021/09/28 01:54:25;;;;;;;5.30;3.60;;;;;;;15.81;66.88;97981.00;4992773;28;20033;-79
2021/09/28 01:56:50;;;;;;;8.23;4.13;;;;;;;15.79;67.08;97981.25;5008539;28;20049;-79
2021/09/28 01:59:16;;;;;;;5.88;3.70;;;;;;;15.74;67.16;97989.09;4992722;28;20041;-79
2021/09/28 02:01:42;;;;;;;6.20;4.28;;;;;;;15.77;66.40;97988.63;4992905;28;20041;-79
2021/09/28 02:04:07;;;;;;;7.55;4.32;;;;;;;15.75;67.01;97982.84;5008894;28;20123;-79
2021/09/28 02:06:37;;;;;;;6.68;4.10;;;;;;;15.78;66.64;97984.16;5010183;28;20038;-80
2021/09/28 02:09:05;;;;;;;7.05;4.30;;;;;;;15.75;66.72;97982.84;4960817;28;20386;-79
2021/09/28 02:11:30;;;;;;;7.75;4.38;;;;;;;15.66;66.59;97985.16;4992531;28;20121;-79
2021/09/28 02:13:56;;;;;;;6.95;4.40;;;;;;;15.65;67.21;97982.78;4992601;28;20113;-80
2021/09/28 02:16:21;;;;;;;6.53;4.25;;;;;;;15.66;67.14;97976.47;4993640;28;20034;-79
2021/09/28 02:18:46;;;;;;;8.68;5.25;;;;;;;15.58;67.11;97977.75;5012596;28;20030;-79
2021/09/28 02:21:12;;;;;;;7.10;4.55;;;;;;;15.65;66.88;97972.28;5012477;28;20030;-79
2021/09/28 02:23:37;;;;;;;5.95;4.60;;;;;;;15.66;66.88;97976.47;4996212;28;20420;-79
2021/09/28 02:26:03;;;;;;;8.10;4.45;;;;;;;15.58;66.78;97971.72;5012604;28;20116;-80
2021/09/28 02:28:28;;;;;;;7.05;5.22;;;;;;;15.57;66.88;97970.13;5012122;28;20094;-79
2021/09/28 02:30:54;;;;;;;6.43;4.35;;;;;;;15.52;66.90;97970.91;4996218;28;20109;-79
2021/09/28 02:33:19;;;;;;;5.60;4.00;;;;;;;15.50;66.61;97968.53;5012479;28;20065;-79
2021/09/28 02:35:45;;;;;;;6.13;4.20;;;;;;;15.46;66.71;97962.22;5012426;28;20033;-79
2021/09/28 02:38:11;;;;;;;6.38;4.28;;;;;;;15.42;66.55;97968.22;5013863;28;20044;-79
2021/09/28 02:40:37;;;;;;;5.70;3.92;;;;;;;15.35;66.52;97973.69;4979567;28;20034;-79
2021/09/28 02:43:03;;;;;;;6.70;4.10;;;;;;;15.25;66.55;97971.03;5012180;28;20425;-80
2021/09/28 02:45:29;;;;;;;7.07;4.30;;;;;;;15.24;66.73;97979.97;4995860;28;20080;-79
2021/09/28 02:47:54;;;;;;;6.57;3.80;;;;;;;15.21;66.56;97978.63;5011894;28;20622;-80
2021/09/28 02:50:19;;;;;;;6.28;3.50;;;;;;;15.15;66.46;97979.66;5011779;28;20057;-79
2021/09/28 02:52:45;;;;;;;6.18;3.90;;;;;;;15.21;67.13;97980.47;5012296;28;20030;-79
2021/09/28 02:55:11;;;;;;;6.18;3.90;;;;;;;15.22;66.72;97982.06;4995491;28;20034;-79
2021/09/28 02:57:36;;;;;;;5.95;4.22;;;;;;;15.21;66.50;97980.47;4963578;28;20044;-79
2021/09/28 03:00:06;;;;;;;4.82;3.60;;;;;;;15.07;66.64;97982.75;4960071;28;20501;-79
2021/09/28 03:02:31;;;;;;;7.55;4.22;;;;;;;15.14;67.06;97970.97;4992171;28;20042;-79
2021/09/28 03:04:57;;;;;;;8.30;4.30;;;;;;;15.09;66.94;97978.81;5008713;28;20025;-80
2021/09/28 03:07:22;;;;;;;6.75;4.07;;;;;;;15.07;66.67;97988.78;5010998;28;20218;-79
2021/09/28 03:09:47;;;;;;;6.00;4.55;;;;;;;15.01;66.96;97979.31;4995261;28;20037;-79
2021/09/28 03:12:13;;;;;;;6.95;4.13;;;;;;;15.01;67.11;97994.25;4978985;28;20037;-79
2021/09/28 03:14:38;;;;;;;7.25;3.97;;;;;;;14.96;66.67;97987.16;5012816;28;20661;-79
2021/09/28 03:17:04;;;;;;;6.45;4.30;;;;;;;14.97;67.05;97993.97;4994980;28;20041;-79
2021/09/28 03:19:29;;;;;;;7.63;4.00;;;;;;;14.96;66.53;97992.41;5023133;28;20453;-79
2021/09/28 03:21:55;;;;;;;8.30;4.40;;;;;;;14.93;66.71;97992.88;5014901;28;20042;-79
2021/09/28 03:24:20;;;;;;;7.35;4.13;;;;;;;14.94;66.70;97991.84;5032451;28;20025;-79
2021/09/28 03:26:46;;;;;;;9.52;4.60;;;;;;;14.90;66.83;97996.00;5023237;28;20061;-80
2021/09/28 03:29:12;;;;;;;5.70;3.88;;;;;;;14.88;66.58;97985.00;4994360;28;20037;-79
2021/09/28 03:31:38;;;;;;;8.60;4.75;;;;;;;14.82;66.79;97983.34;4994917;28;20507;-79
2021/09/28 03:34:03;;;;;;;6.15;3.85;;;;;;;14.77;66.53;97990.16;4994866;28;20547;-79
2021/09/28 03:36:29;;;;;;;8.48;4.50;;;;;;;14.74;66.82;97984.63;4994441;28;20113;-79
2021/09/28 03:38:54;;;;;;;7.13;4.45;;;;;;;14.72;66.88;97981.44;4994898;28;20112;-79
2021/09/28 03:41:20;;;;;;;6.68;4.53;;;;;;;14.72;66.99;97992.75;5011383;28;20046;-79
2021/09/28 03:43:45;;;;;;;5.28;3.83;;;;;;;14.75;67.16;97983.56;4994972;28;20497;-80
2021/09/28 03:46:10;;;;;;;7.30;5.07;;;;;;;14.89;67.18;97991.78;5010964;28;20030;-79
2021/09/28 03:48:36;;;;;;;8.95;5.28;;;;;;;14.90;66.83;97983.69;4994669;28;20038;-79
2021/09/28 03:51:01;;;;;;;10.80;5.45;;;;;;;15.02;66.95;97991.38;4978147;28;20133;-79
2021/09/28 03:53:27;;;;;;;8.20;5.25;;;;;;;15.01;66.67;97981.13;4994954;28;20353;-79
2021/09/28 03:55:52;;;;;;;9.80;5.35;;;;;;;15.04;66.80;97978.78;5010691;28;20076;-79
2021/09/28 03:58:18;;;;;;;9.27;5.18;;;;;;;15.06;67.14;97987.22;4994008;28;20048;-79
2021/09/28 04:00:43;;;;;;;9.05;5.72;;;;;;;15.06;67.20;97987.22;4994429;28;20068;-80
2021/09/28 04:03:10;;;;;;;11.85;6.53;;;;;;;15.06;67.09;97983.78;4977889;28;20034;-80
2021/09/28 04:05:36;;;;;;;8.93;5.40;;;;;;;15.06;67.30;97996.91;5010714;28;20045;-79
2021/09/28 04:08:02;;;;;;;12.27;6.30;;;;;;;15.01;67.31;97995.03;5010405;28;20030;-79
2021/09/28 04:10:27;;;;;;;9.70;6.38;;;;;;;15.02;67.38;98001.84;5010526;28;20113;-79
2021/09/28 04:12:53;;;;;;;9.88;6.60;;;;;;;15.02;67.53;98007.09;4994128;28;20129;-79
2021/09/28 04:15:23;;;;;;;12.15;6.28;;;;;;;15.01;67.68;97989.81;5011685;28;20038;-79
2021/09/28 04:17:48;;;;;;;13.35;7.47;;;;;;;15.07;67.08;97988.78;4994370;28;20037;-80
2021/09/28 04:20:14;;;;;;;10.93;6.72;;;;;;;15.09;67.04;98001.63;4993975;28;20025;-79
2021/09/28 04:22:39;;;;;;;11.75;7.57;;;;;;;15.14;67.10;97999.81;5030085;28;20163;-79
2021/09/28 04:25:05;;;;;;;16.15;9.68;;;;;;;15.11;67.17;98007.41;5013424;28;20025;-80
2021/09/28 04:27:31;;;;;;;16.67;9.07;;;;;;;15.16;67.20;98000.38;5014754;28;20528;-80
2021/09/28 04:29:56;;;;;;;18.85;10.27;;;;;;;15.19;66.75;98006.94;5010406;28;20226;-80
2021/09/28 04:32:22;;;;;;;21.48;10.07;;;;;;;15.20;66.83;98010.34;4993680;28;20049;-79
2021/09/28 04:34:47;;;;;;;18.83;10.25;;;;;;;15.11;67.02;98004.78;5010264;28;20121;-79
2021/09/28 04:37:12;;;;;;;18.40;9.82;;;;;;;15.13;67.03;98008.75;4993797;28;20115;-79
2021/09/28 04:39:38;;;;;;;16.90;9.70;;;;;;;15.11;67.08;98007.41;4961287;28;20034;-79
2021/09/28 04:42:03;;;;;;;18.48;10.05;;;;;;;15.09;66.92;98012.91;5010070;28;20189;-79
2021/09/28 04:44:29;;;;;;;21.73;11.95;;;;;;;15.03;67.34;98015.75;4993568;28;20066;-80
2021/09/28 04:46:54;;;;;;;18.98;10.25;;;;;;;15.02;67.87;98008.94;5009735;28;20022;-79
2021/09/28 04:49:20;;;;;;;18.25;10.35;;;;;;;15.01;67.65;98008.16;4993597;28;20029;-78
2021/09/28 04:51:45;;;;;;;18.95;10.65;;;;;;;15.07;67.62;98007.13;4977190;28;20037;-79
2021/09/28 04:54:10;;;;;;;16.70;9.73;;;;;;;15.06;67.49;98018.69;5011098;28;20038;-80
2021/09/28 04:56:36;;;;;;;21.02;11.15;;;;;;;15.00;67.56;98013.66;4992863;28;20400;-79
2021/09/28 04:59:03;;;;;;;17.10;9.73;;;;;;;15.00;67.01;98009.19;5009408;28;20176;-79
2021/09/28 05:01:28;;;;;;;15.75;9.18;;;;;;;14.93;66.99;98008.63;5008300;28;20389;-79
2021/09/28 05:03:54;;;;;;;15.63;9.95;;;;;;;14.91;67.02;98011.50;5008639;28;20041;-79
2021/09/28 05:06:19;;;;;;;17.95;10.80;;;;;;;14.85;66.84;98011.72;5008294;28;20030;-79
2021/09/28 05:08:44;;;;;;;15.00;9.25;;;;;;;14.82;67.23;98012.97;4989196;28;20026;-79
2021/09/28 05:11:11;;;;;;;15.73;9.60;;;;;;;14.78;67.04;98007.44;4990761;28;20449;-79
2021/09/28 05:13:37;;;;;;;23.23;10.75;;;;;;;14.79;66.95;98009.03;4972708;28;20401;-79
2021/09/28 05:16:02;;;;;;;18.63;10.20;;;;;;;14.81;67.04;98005.41;4972923;28;20030;-80
2021/09/28 05:18:28;;;;;;;17.23;9.93;;;;;;;14.81;66.68;98005.41;4989444;28;20113;-79
2021/09/28 05:20:53;;;;;;;17.75;10.88;;;;;;;14.73;66.83;98006.63;4992437;28;20060;-80
2021/09/28 05:23:18;;;;;;;17.88;10.30;;;;;;;14.69;66.83;98013.44;4975702;28;20049;-79
2021/09/28 05:25:44;;;;;;;18.42;10.65;;;;;;;14.62;66.80;98008.38;4992435;28;20042;-79
2021/09/28 05:28:09;;;;;;;16.73;10.35;;;;;;;14.57;66.90;98005.69;5008360;28;20034;-80
2021/09/28 05:30:35;;;;;;;16.15;10.18;;;;;;;14.56;66.90;98007.50;4975091;28;20026;-79
2021/09/28 05:33:00;;;;;;;18.42;10.30;;;;;;;14.57;67.31;98005.69;4989640;28;20068;-79
2021/09/28 05:35:26;;;;;;;19.17;10.70;;;;;;;14.63;67.74;98015.19;5009605;28;20030;-79
2021/09/28 05:37:52;;;;;;;17.70;10.05;;;;;;;14.63;67.62;98007.34;5008989;28;20105;-79
2021/09/28 05:40:18;;;;;;;20.13;10.68;;;;;;;14.65;67.18;98007.91;5009363;28;20047;-79
2021/09/28 05:42:43;;;;;;;18.98;10.50;;;;;;;14.67;67.34;98005.81;4976836;28;20101;-79
2021/09/28 05:45:09;;;;;;;18.23;9.80;;;;;;;14.63;67.42;98009.94;5009413;28;20624;-79
2021/09/28 05:47:34;;;;;;;17.60;10.27;;;;;;;14.66;67.23;98009.47;4976332;28;20109;-80
2021/09/28 05:50:00;;;;;;;18.67;9.98;;;;;;;14.71;67.67;98006.09;5009199;28;20034;-79
2021/09/28 05:52:25;;;;;;;20.30;11.20;;;;;;;14.68;67.36;98017.84;4995356;28;20026;-79
2021/09/28 05:54:51;;;;;;;22.55;11.15;;;;;;;14.71;67.72;98011.34;5012811;28;20034;-79
2021/09/28 05:57:18;;;;;;;17.40;9.52;;;;;;;14.74;67.44;98016.88;5012443;28;20099;-79
2021/09/28 05:59:44;;;;;;;17.95;10.73;;;;;;;14.85;67.42;98024.81;4980490;28;20034;-79
2021/09/28 06:02:10;;;;;;;18.42;10.40;;;;;;;14.88;67.47;98016.44;5013058;28;20051;-80
2021/09/28 06:04:37;;;;;;;22.58;10.35;;;;;;;14.90;67.35;98019.59;4996084;28;20068;-80
2021/09/28 06:07:03;;;;;;;23.05;11.27;;;;;;;14.92;67.51;98020.13;5012613;28;20034;-80
2021/09/28 06:09:30;;;;;;;21.25;10.63;;;;;;;14.93;67.44;98014.66;5012747;28;20374;-79
2021/09/28 06:11:55;;;;;;;20.35;11.90;;;;;;;14.98;67.35;98016.53;5009343;28;20054;-79
2021/09/28 06:14:23;;;;;;;19.92;11.38;;;;;;;14.98;67.79;98008.66;5001316;28;20515;-79
2021/09/28 06:16:48;;;;;;;21.48;10.27;;;;;;;15.03;67.24;98008.69;5002904;28;20022;-79
2021/09/28 06:19:13;;;;;;;21.42;11.02;;;;;;;15.05;67.57;98013.69;5000682;28;20359;-79
2021/09/28 06:21:39;;;;;;;22.38;11.73;;;;;;;15.05;67.16;98005.81;4960589;28;20450;-79
2021/09/28 06:24:04;;;;;;;23.88;12.10;;;;;;;15.07;67.46;98007.13;4960349;28;20486;-79
2021/09/28 06:26:30;;;;;;;18.98;10.63;;;;;;;15.14;67.16;97999.81;4966881;28;20034;-79
2021/09/28 06:28:55;;;;;;;19.15;11.23;;;;;;;15.22;67.04;98005.66;4996367;28;20034;-79
2021/09/28 06:31:20;;;;;;;18.88;9.90;;;;;;;15.21;66.95;98009.31;5013582;28;20164;-79
2021/09/28 06:33:48;;;;;;;20.67;11.05;;;;;;;15.08;67.05;98005.28;4979736;28;20105;-79
2021/09/28 06:36:14;;;;;;;22.23;12.95;;;;;;;15.10;66.88;98003.22;5012180;28;20121;-79
2021/09/28 06:38:39;;;;;;;21.33;11.50;;;;;;;15.09;67.10;98007.66;5013756;28;20152;-80
2021/09/28 06:41:05;;;;;;;17.75;10.27;;;;;;;15.10;67.05;97996.16;4995863;28;20030;-79
2021/09/28 06:43:30;;;;;;;19.23;9.98;;;;;;;15.11;66.90;97992.50;5012240;28;20044;-79
2021/09/28 06:45:56;;;;;;;19.80;10.77;;;;;;;15.13;67.21;98002.69;5011912;28;20425;-80
2021/09/28 06:48:21;;;;;;;22.70;10.88;;;;;;;15.15;66.81;97996.19;4979692;28;20061;-79
2021/09/28 06:50:46;;;;;;;23.77;11.45;;;;;;;15.25;67.11;98003.31;4992462;28;20053;-79
2021/09/28 06:53:12;;;;;;;22.40;11.50;;;;;;;15.31;66.80;98004.13;5012078;28;20030;-80
2021/09/28 06:55:40;;;;;;;19.00;10.18;;;;;;;15.32;66.91;98013.59;4995668;28;20121;-79
2021/09/28 06:58:05;;;;;;;22.00;10.90;;;;;;;15.44;66.47;98013.38;5011731;28;20052;-79
2021/09/28 07:00:32;;;;;;;18.48;10.10;;;;;;;15.39;66.50;98011.53;5012065;28;20037;-80
2021/09/28 07:02:58;;;;;;;17.58;10.38;;;;;;;15.51;66.74;98008.69;5009453;28;20049;-79
2021/09/28 07:05:23;;;;;;;18.27;10.38;;;;;;;15.62;67.13;98012.94;4961391;28;20034;-80
2021/09/28 07:07:48;;;;;;;17.98;10.98;;;;;;;15.73;67.11;98005.91;4991789;28;20061;-79
2021/09/28 07:10:14;;;;;;;16.60;9.85;;;;;;;15.93;66.50;98012.31;4997347;28;20022;-79
2021/09/28 07:12:39;;;;;;;20.63;10.95;;;;;;;16.00;66.31;98012.84;4995518;28;20064;-79
2021/09/28 07:15:06;;;;;;;16.08;8.65;;;;;;;16.07;65.54;98010.75;4980790;28;20095;-79
2021/09/28 07:17:32;;;;;;;15.75;9.48;;;;;;;16.04;64.96;98012.06;5008479;28;20668;-80
2021/09/28 07:19:57;;;;;;;13.07;8.32;;;;;;;16.21;65.25;98019.72;4994510;28;20416;-80
2021/09/28 07:22:25;;;;;;;14.60;7.82;;;;;;;16.21;63.70;98011.03;5011184;28;20042;-80
2021/09/28 07:24:51;;;;;;;12.18;6.72;;;;;;;16.10;64.55;98011.03;5011296;28;20484;-80
2021/09/28 07:27:16;;;;;;;12.38;7.18;;;;;;;16.22;64.28;98016.03;4994722;28;20088;-80
2021/09/28 07:29:42;;;;;;;12.20;7.53;;;;;;;16.29;63.87;98010.53;5005729;28;20034;-79
2021/09/28 07:32:07;;;;;;;12.85;7.78;;;;;;;16.33;64.24;98016.06;4975432;28;20038;-79
2021/09/28 07:34:33;;;;;;;10.20;6.85;;;;;;;16.35;63.99;98013.94;4992621;28;20027;-79
2021/09/28 07:36:58;;;;;;;15.23;7.40;;;;;;;16.28;64.19;98019.50;4992552;28;20034;-79
2021/09/28 07:39:23;;;;;;;14.43;7.25;;;;;;;16.37;64.00;98020.53;4991517;28;20019;-79
2021/09/28 07:41:49;;;;;;;15.73;7.53;;;;;;;16.53;63.95;98025.81;4991772;28;20105;-80
2021/09/28 07:44:14;;;;;;;11.52;7.13;;;;;;;16.63;63.58;98023.19;4991487;28;20459;-79
2021/09/28 07:46:40;;;;;;;13.52;7.15;;;;;;;16.65;63.77;98019.25;4990963;28;20113;-79
2021/09/28 07:49:05;;;;;;;13.65;7.60;;;;;;;16.74;63.97;98019.53;4988852;28;20037;-79
2021/09/28 07:51:30;;;;;;;11.10;7.25;;;;;;;16.94;62.56;98029.25;5001750;28;20501;-79
2021/09/28 07:53:56;;;;;;;9.93;6.15;;;;;;;17.23;61.23;98026.06;4990753;28;20117;-79
2021/09/28 07:56:21;;;;;;;10.23;6.30;;;;;;;17.37;60.68;98026.31;4986235;28;20030;-79
2021/09/28 07:58:47;;;;;;;9.80;5.80;;;;;;;17.38;61.29;98030.53;4990006;28;20034;-79
2021/09/28 08:01:13;;;;;;;9.50;6.35;;;;;;;17.44;61.31;98026.81;4974314;28;20035;-80
2021/09/28 08:03:39;;;;;;;9.00;5.75;;;;;;;17.32;61.93;98023.69;4973634;28;20103;-79
2021/09/28 08:06:04;;;;;;;9.10;5.65;;;;;;;17.45;60.98;98027.63;4990197;28;20689;-79
2021/09/28 08:08:29;;;;;;;10.73;6.75;;;;;;;17.32;61.26;98024.47;4991697;28;20113;-79
2021/09/28 08:10:55;;;;;;;11.00;5.88;;;;;;;17.37;61.44;98027.09;4977007;28;20025;-79
2021/09/28 08:13:22;;;;;;;13.52;7.85;;;;;;;17.73;60.14;98032.22;5009643;28;20044;-79
2021/09/28 08:15:48;;;;;;;12.15;7.32;;;;;;;17.63;62.02;98024.38;4992772;28;20124;-80
2021/09/28 08:18:13;;;;;;;12.07;6.63;;;;;;;17.41;61.40;98025.50;5009795;28;20030;-79
2021/09/28 08:20:39;;;;;;;11.27;4.50;;;;;;;17.37;60.63;98023.66;4992803;28;20373;-79
2021/09/28 08:23:04;;;;;;;8.85;6.18;;;;;;;17.23;61.01;98020.81;4977140;28;20026;-79
2021/09/28 08:25:47;;;;;;;9.13;5.13;;;;;;;17.62;60.53;98028.06;4976880;28;20107;-79
2021/09/28 08:31:02;;;;;;;13.55;5.68;;;;;;;17.87;60.14;98026.41;4990058;28;20045;-79
2021/09/28 08:33:29;;;;;;;10.77;5.75;;;;;;;17.93;60.20;98023.50;4957505;28;20064;-79
2021/09/28 08:35:54;;;;;;;8.60;5.22;;;;;;;17.94;60.31;98025.09;4989665;28;20100;-79
2021/09/28 08:38:20;;;;;;;7.93;4.70;;;;;;;17.97;59.74;98026.38;4989966;28;20038;-79
2021/09/28 08:40:45;;;;;;;11.18;5.28;;;;;;;18.07;60.05;98028.94;4973832;28;20037;-79
2021/09/28 08:43:10;;;;;;;6.60;4.30;;;;;;;18.24;58.62;98019.91;4960484;28;20033;-79
2021/09/28 08:45:36;;;;;;;7.55;5.70;;;;;;;18.02;60.04;98018.44;4992490;28;20064;-80
2021/09/28 08:48:01;;;;;;;8.25;4.60;;;;;;;18.08;59.93;98019.22;4991246;28;20516;-79
2021/09/28 08:50:27;;;;;;;8.18;4.15;;;;;;;18.10;59.38;98012.59;4956841;28;20030;-79
2021/09/28 08:52:52;;;;;;;8.20;4.55;;;;;;;18.09;60.00;98013.66;4957471;28;20553;-79
2021/09/28 08:55:18;;;;;;;9.55;4.25;;;;;;;18.10;60.22;98011.81;4989492;28;20031;-79
2021/09/28 08:57:43;;;;;;;4.95;3.60;;;;;;;18.18;60.02;98019.16;4989626;28;20074;-79
2021/09/28 09:00:15;;;;;;;6.50;3.28;;;;;;;18.20;58.03;98011.75;4992376;28;20036;-79
2021/09/28 09:02:42;;;;;;;3.58;2.55;;;;;;;18.52;56.64;98015.75;5009242;28;20535;-79
2021/09/28 09:05:14;;;;;;;7.57;2.88;;;;;;;18.61;56.56;98010.69;4992775;28;20030;-79
2021/09/28 09:07:44;;;;;;;7.53;2.42;;;;;;;18.45;58.44;98013.44;5008898;28;20046;-78
2021/09/28 09:10:11;;;;;;;7.93;3.05;;;;;;;18.60;56.82;98009.13;4992407;28;20465;-79
2021/09/28 09:12:41;;;;;;;6.15;2.50;;;;;;;18.52;57.23;98005.19;4976380;28;20041;-79
2021/09/28 09:15:33;;;;;;;5.60;2.63;;;;;;;18.50;57.23;98005.47;4976335;28;20053;-79
2021/09/28 09:18:01;;;;;;;6.22;2.40;;;;;;;18.68;57.22;97998.75;4992719;28;20029;-79
2021/09/28 09:20:33;;;;;;;5.95;2.30;;;;;;;18.99;56.30;97995.09;4972664;28;20125;-79
2021/09/28 09:23:26;;;;;;;7.47;2.67;;;;;;;19.07;57.21;97997.91;4988990;28;20030;-79
2021/09/28 09:26:21;;;;;;;5.18;2.42;;;;;;;19.32;56.80;97990.00;4973382;28;20081;-79
2021/09/28 09:28:48;;;;;;;;;;;;;;;19.20;54.86;97993.03;4992755;28;20022;-79
2021/09/28 09:31:21;;;;;;;7.45;2.45;;;;;;;19.46;54.40;97993.53;4992808;28;19914;-79
2021/09/28 09:33:49;;;;;;;4.45;1.85;;;;;;;19.45;51.95;97989.34;4993075;28;20069;-79
2021/09/28 09:36:17;;;;;;;5.80;1.85;;;;;;;19.61;51.83;97988.06;5008642;28;20697;-79
2021/09/28 09:38:52;;;;;;;4.55;2.47;;;;;;;19.51;55.07;97982.91;5008642;28;20041;-79
2021/09/28 09:41:18;;;;;;;4.70;1.88;;;;;;;20.04;51.98;97983.88;4992741;28;20429;-79
2021/09/28 09:43:48;;;;;;;6.25;2.10;;;;;;;20.11;53.46;97982.41;4992375;28;20071;-79
2021/09/28 09:46:17;;;;;;;2.85;1.50;;;;;;;19.95;52.02;97978.44;5008266;28;20037;-79
2021/09/28 09:48:44;;;;;;;3.05;1.42;;;;;;;20.10;51.57;97974.78;4975862;28;20056;-79
2021/09/28 09:51:12;;;;;;;2.70;0.93;;;;;;;20.00;50.80;97975.72;4975801;28;20121;-79
2021/09/28 09:53:54;;;;;;;4.55;1.38;;;;;;;20.01;48.06;97978.09;4992766;28;20121;-80
2021/09/28 09:56:21;;;;;;;3.05;1.00;;;;;;;20.59;48.14;97984.06;4992010;28;20439;-79
2021/09/28 09:58:46;;;;;;;2.97;1.48;;;;;;;20.61;50.45;97973.22;4991901;28;20763;-80
2021/09/28 10:01:12;;;;;;;5.25;1.98;;;;;;;20.80;48.79;97970.53;4992432;28;20068;-79
2021/09/28 10:03:38;;;;;;;4.28;1.40;;;;;;;20.79;48.97;97968.97;4992427;28;20101;-80
2021/09/28 10:06:08;;;;;;;1.80;1.10;;;;;;;20.70;49.67;97969.66;4991834;28;20034;-79
2021/09/28 10:08:34;;;;;;;2.80;1.25;;;;;;;20.75;47.93;97964.25;5008894;28;20034;-79
2021/09/28 10:11:00;;;;;;;3.00;0.82;;;;;;;20.67;44.45;97957.00;5008935;28;20041;-79
2021/09/28 10:14:04;;;;;;;4.55;1.00;;;;;;;19.88;47.52;97968.22;4992244;28;20688;-79
2021/09/28 10:16:40;;;;;;;5.55;1.25;;;;;;;20.26;45.62;97957.63;4935812;28;20034;-79
2021/09/28 10:19:28;;;;;;;7.47;1.80;;;;;;;19.85;46.97;97952.91;4935761;28;20030;-79
2021/09/28 10:21:55;;;;;;;3.53;1.42;;;;;;;20.27;47.13;97948.63;4964564;28;20162;-78
2021/09/28 10:24:21;;;;;;;5.00;1.17;;;;;;;20.45;47.33;97948.88;4951682;28;20063;-79
2021/09/28 10:26:58;;;;;;;2.95;1.00;;;;;;;20.34;48.65;97943.75;4967594;28;20722;-79
2021/09/28 10:29:44;;;;;;;3.80;1.10;;;;;;;20.16;47.80;97947.97;4967794;28;20541;-78
2021/09/28 10:32:21;;;;;;;3.35;1.40;;;;;;;19.82;47.83;97943.69;4951284;28;20049;-79
2021/09/28 10:35:06;;;;;;;4.15;1.10;;;;;;;19.67;47.50;97940.44;4935479;28;20041;-79
2021/09/28 10:37:49;;;;;;;4.88;1.58;;;;;;;19.63;49.37;97951.56;4919122;29;20734;-79
2021/09/28 10:40:15;;;;;;;5.28;1.00;;;;;;;19.91;48.72;97948.34;4960388;28;20071;-79
2021/09/28 10:42:55;;;;;;;5.75;1.70;;;;;;;19.76;48.37;97941.44;4944552;28;20038;-79
2021/09/28 10:45:27;;;;;;;4.18;1.15;;;;;;;20.28;45.79;97947.53;4927169;29;20034;-79
2021/09/28 10:47:56;;;;;;;2.78;1.33;;;;;;;20.07;48.10;97941.78;4992607;28;20049;-78
2021/09/28 10:50:23;;;;;;;4.53;1.20;;;;;;;19.89;49.69;97943.34;4995439;28;20057;-79
2021/09/28 10:52:50;;;;;;;1.73;0.82;;;;;;;19.77;48.04;97940.34;4992020;28;20137;-78
2021/09/28 10:55:15;;;;;;;2.08;0.73;;;;;;;19.84;48.88;97946.06;4975264;28;20041;-79
2021/09/28 10:57:58;;;;;;;5.38;1.38;;;;;;;19.55;49.32;97940.88;4988150;28;20386;-78
2021/09/28 11:00:28;;;;;;;3.65;0.90;;;;;;;19.61;49.81;97932.59;4974799;28;20061;-79
2021/09/28 11:02:55;;;;;;;2.85;1.00;;;;;;;19.62;49.21;97922.81;4991884;28;20035;-78
2021/09/28 11:05:41;;;;;;;2.47;0.98;;;;;;;19.33;48.95;97923.72;4991318;28;20061;-79
2021/09/28 11:08:07;;;;;;;;;;;;;;;19.61;49.45;97922.03;4992246;28;20117;-79
2021/09/28 11:10:33;;;;;;;2.75;1.10;;;;;;;20.66;47.69;97914.94;4986766;28;19959;-79
2021/09/28 11:12:59;;;;;;;2.90;0.90;;;;;;;21.40;45.64;97914.84;5010450;28;20683;-78
2021/09/28 11:15:27;;;;;;;2.45;0.80;;;;;;;22.16;43.72;97895.69;4994067;28;20025;-79
2021/09/28 11:17:52;;;;;;;2.97;0.88;;;;;;;22.31;43.15;97891.94;5011293;28;20038;-79
2021/09/28 11:20:28;;;;;;;2.13;0.75;;;;;;;22.33;42.53;97892.41;5020100;28;20036;-79
2021/09/28 11:23:04;;;;;;;2.38;1.10;;;;;;;22.88;40.12;97879.84;4997551;28;20060;-79
2021/09/28 11:25:32;;;;;;;2.70;0.82;;;;;;;23.44;41.06;97880.94;4998536;28;20029;-79
2021/09/28 11:28:10;;;;;;;2.28;0.95;;;;;;;23.31;40.58;97879.19;4993106;28;20026;-80
2021/09/28 11:30:38;;;;;;;2.35;1.00;;;;;;;23.66;39.20;97873.91;5001715;28;20058;-79
2021/09/28 11:33:06;;;;;;;4.28;1.20;;;;;;;23.87;38.72;97871.41;4983223;28;20500;-79